createdAt,value
2019-05-26T00:00:55.806Z,92.18
2019-05-26T00:03:24.208Z,92.67
2019-05-26T00:05:52.492Z,93.34
2019-05-26T00:08:20.797Z,95.22
2019-05-26T00:10:49.202Z,96.96
2019-05-26T00:13:17.493Z,97.21
2019-05-26T00:15:46.005Z,97.31
2019-05-26T00:18:14.346Z,97.42
2019-05-26T00:20:43.268Z,97.31
2019-05-26T00:23:11.615Z,97.10
2019-05-26T00:25:39.930Z,97.00
2019-05-26T00:28:08.212Z,96.96
2019-05-26T00:30:36.629Z,96.76
2019-05-26T00:33:05.033Z,96.69
2019-05-26T00:35:33.314Z,96.59
2019-05-26T00:38:01.610Z,96.41
2019-05-26T00:40:29.964Z,96.37
2019-05-26T00:42:58.376Z,97.16
2019-05-26T00:45:26.683Z,98.04
2019-05-26T00:47:55.029Z,98.68
2019-05-26T00:50:23.454Z,99.44
2019-05-26T00:52:51.737Z,99.90
2019-05-26T00:55:20.051Z,100.00
2019-05-26T00:57:48.450Z,100.00
2019-05-26T01:00:20.483Z,100.00
2019-05-26T01:02:48.803Z,100.00
2019-05-26T01:05:17.083Z,100.00
2019-05-26T01:07:45.492Z,100.00
2019-05-26T01:10:13.775Z,100.00
2019-05-26T01:12:42.060Z,100.00
2019-05-26T01:15:10.558Z,100.00
2019-05-26T01:17:38.836Z,100.00
2019-05-26T01:20:07.121Z,100.00
2019-05-26T01:22:35.627Z,100.00
2019-05-26T01:25:05.843Z,100.00
2019-05-26T01:27:34.126Z,100.00
2019-05-26T01:30:02.454Z,100.00
2019-05-26T01:32:30.944Z,100.00
2019-05-26T01:34:59.366Z,100.00
2019-05-26T01:37:27.646Z,100.00
2019-05-26T01:39:55.946Z,100.00
2019-05-26T01:42:24.297Z,100.00
2019-05-26T01:44:52.586Z,100.00
2019-05-26T01:47:21.639Z,100.00
2019-05-26T01:49:50.157Z,100.00
2019-05-26T01:52:18.436Z,100.00
2019-05-26T01:54:46.722Z,100.00
2019-05-26T01:57:15.289Z,100.00
2019-05-26T01:59:43.628Z,100.00
2019-05-26T02:02:11.919Z,100.00
2019-05-26T02:04:40.341Z,100.00
2019-05-26T02:07:08.661Z,100.00
2019-05-26T02:09:37.710Z,100.00
2019-05-26T02:12:06.030Z,100.00
2019-05-26T02:14:34.440Z,100.00
2019-05-26T02:17:02.719Z,100.00
2019-05-26T02:19:31.008Z,100.00
2019-05-26T02:21:59.351Z,100.00
2019-05-26T02:24:27.625Z,100.00
2019-05-26T02:26:56.145Z,100.00
2019-05-26T02:29:24.433Z,100.00
2019-05-26T02:31:53.073Z,100.00
2019-05-26T02:34:21.497Z,100.00
2019-05-26T02:36:50.032Z,100.00
2019-05-26T02:39:18.416Z,100.00
2019-05-26T02:41:46.833Z,100.00
2019-05-26T02:44:15.281Z,100.00
2019-05-26T02:46:43.655Z,100.00
2019-05-26T02:49:11.956Z,100.00
2019-05-26T02:51:40.273Z,100.00
2019-05-26T02:54:08.562Z,100.00
2019-05-26T02:56:36.894Z,100.00
2019-05-26T02:59:05.277Z,100.00
2019-05-26T03:01:33.634Z,100.00
2019-05-26T03:04:01.914Z,100.00
2019-05-26T03:06:30.242Z,100.00
2019-05-26T03:08:58.562Z,100.00
2019-05-26T03:11:26.943Z,100.00
2019-05-26T03:13:55.282Z,100.00
2019-05-26T03:16:23.566Z,100.00
2019-05-26T03:18:52.588Z,100.00
2019-05-26T03:21:21.490Z,100.00
2019-05-26T03:23:50.161Z,100.00
2019-05-26T03:26:18.521Z,100.00
2019-05-26T03:28:46.861Z,100.00
2019-05-26T03:31:15.312Z,100.00
2019-05-26T03:33:43.591Z,100.00
2019-05-26T03:36:12.578Z,100.00
2019-05-26T03:38:41.060Z,100.00
2019-05-26T03:41:09.643Z,100.00
2019-05-26T03:43:38.086Z,100.00
2019-05-26T03:46:12.298Z,100.00
2019-05-26T03:48:40.609Z,100.00
2019-05-26T03:51:09.018Z,100.00
2019-05-26T03:53:37.406Z,100.00
2019-05-26T03:56:05.694Z,100.00
2019-05-26T03:58:33.996Z,100.00
2019-05-26T04:01:02.304Z,100.00
2019-05-26T04:03:31.422Z,100.00
2019-05-26T04:05:59.712Z,100.00
2019-05-26T04:08:28.025Z,100.00
2019-05-26T04:10:56.343Z,100.00
2019-05-26T04:13:24.622Z,100.00
2019-05-26T04:15:52.935Z,100.00
2019-05-26T04:18:21.223Z,100.00
2019-05-26T04:20:49.674Z,100.00
2019-05-26T04:23:17.964Z,100.00
2019-05-26T04:25:46.404Z,100.00
2019-05-26T04:28:14.712Z,100.00
2019-05-26T04:30:43.060Z,100.00
2019-05-26T04:33:11.364Z,100.00
2019-05-26T04:35:39.651Z,100.00
2019-05-26T04:38:07.997Z,100.00
2019-05-26T04:40:36.744Z,100.00
2019-05-26T04:43:05.130Z,100.00
2019-05-26T04:45:33.435Z,100.00
2019-05-26T04:48:01.776Z,100.00
2019-05-26T04:50:30.058Z,100.00
2019-05-26T04:53:06.219Z,100.00
2019-05-26T04:55:28.677Z,100.00
2019-05-26T04:57:57.075Z,100.00
2019-05-26T05:00:25.385Z,100.00
2019-05-26T05:02:53.734Z,100.00
2019-05-26T05:05:22.712Z,100.00
2019-05-26T05:07:51.139Z,100.00
2019-05-26T05:10:19.427Z,100.00
2019-05-26T05:12:47.718Z,100.00
2019-05-26T05:15:16.221Z,100.00
2019-05-26T05:17:44.618Z,100.00
2019-05-26T05:20:12.908Z,100.00
2019-05-26T05:22:41.320Z,100.00
2019-05-26T05:25:14.652Z,100.00
2019-05-26T05:27:39.983Z,100.00
2019-05-26T05:30:08.522Z,100.00
2019-05-26T05:32:36.825Z,100.00
2019-05-26T05:35:09.476Z,100.00
2019-05-26T05:37:38.410Z,100.00
2019-05-26T05:40:07.622Z,100.00
2019-05-26T05:42:35.905Z,100.00
2019-05-26T05:45:08.405Z,100.00
2019-05-26T05:47:36.729Z,100.00
2019-05-26T05:50:08.903Z,100.00
2019-05-26T05:52:37.288Z,100.00
2019-05-26T05:55:05.944Z,100.00
2019-05-26T05:57:34.259Z,100.00
2019-05-26T06:00:02.738Z,100.00
2019-05-26T06:02:31.113Z,100.00
2019-05-26T06:04:59.430Z,100.00
2019-05-26T06:07:27.722Z,100.00
2019-05-26T06:09:56.143Z,100.00
2019-05-26T06:12:24.630Z,100.00
2019-05-26T06:14:53.033Z,100.00
2019-05-26T06:17:21.464Z,100.00
2019-05-26T06:19:49.828Z,100.00
2019-05-26T06:22:18.124Z,100.00
2019-05-26T06:24:46.564Z,100.00
2019-05-26T06:27:14.857Z,100.00
2019-05-26T06:29:57.928Z,100.00
2019-05-26T06:32:13.639Z,100.00
2019-05-26T06:34:42.341Z,100.00
2019-05-26T06:37:10.635Z,100.00
2019-05-26T06:39:38.962Z,100.00
2019-05-26T06:42:07.256Z,100.00
2019-05-26T06:44:52.139Z,100.00
2019-05-26T06:47:05.725Z,100.00
2019-05-26T06:49:34.012Z,100.00
2019-05-26T06:52:02.407Z,100.00
2019-05-26T06:54:30.802Z,100.00
2019-05-26T06:56:59.150Z,100.00
2019-05-26T06:59:27.456Z,100.00
2019-05-26T07:01:55.796Z,100.00
2019-05-26T07:04:24.085Z,100.00
2019-05-26T07:06:52.382Z,100.00
2019-05-26T07:09:20.744Z,100.00
2019-05-26T07:11:57.045Z,100.00
2019-05-26T07:14:19.268Z,100.00
2019-05-26T07:16:47.609Z,100.00
2019-05-26T07:19:15.897Z,100.00
2019-05-26T07:21:44.202Z,100.00
2019-05-26T07:24:12.675Z,99.56
2019-05-26T07:26:41.022Z,100.00
2019-05-26T07:29:09.408Z,99.81
2019-05-26T07:31:37.740Z,99.97
2019-05-26T07:34:06.032Z,99.38
2019-05-26T07:36:34.381Z,99.49
2019-05-26T07:39:02.939Z,98.91
2019-05-26T07:41:32.019Z,98.51
2019-05-26T07:44:00.348Z,98.61
2019-05-26T07:46:28.753Z,98.30
2019-05-26T07:48:57.046Z,97.68
2019-05-26T07:51:25.377Z,98.87
2019-05-26T07:53:56.110Z,98.89
2019-05-26T07:56:24.333Z,97.96
2019-05-26T07:58:52.620Z,98.58
2019-05-26T08:01:24.279Z,98.22
2019-05-26T08:03:51.079Z,98.38
2019-05-26T08:06:19.396Z,97.56
2019-05-26T08:08:47.716Z,96.69
2019-05-26T08:11:16.030Z,95.97
2019-05-26T08:13:44.333Z,95.61
2019-05-26T08:16:12.706Z,95.71
2019-05-26T08:18:41.102Z,94.48
2019-05-26T08:21:09.435Z,94.71
2019-05-26T08:23:37.749Z,93.27
2019-05-26T08:26:06.157Z,93.59
2019-05-26T08:28:34.510Z,91.98
2019-05-26T08:31:02.921Z,90.95
2019-05-26T08:33:31.367Z,91.43
2019-05-26T08:35:59.657Z,87.87
2019-05-26T08:38:28.020Z,88.23
2019-05-26T08:40:56.309Z,86.87
2019-05-26T08:43:24.741Z,86.32
2019-05-26T08:45:53.022Z,85.87
2019-05-26T08:48:21.436Z,82.57
2019-05-26T08:50:49.851Z,82.75
2019-05-26T08:53:18.172Z,81.35
2019-05-26T08:55:46.454Z,80.58
2019-05-26T08:58:14.887Z,80.02
2019-05-26T09:00:43.334Z,79.72
2019-05-26T09:03:11.606Z,78.81
2019-05-26T09:05:39.954Z,80.55
2019-05-26T09:08:08.491Z,80.23
2019-05-26T09:10:36.731Z,78.06
2019-05-26T09:13:05.042Z,78.92
2019-05-26T09:15:33.642Z,78.69
2019-05-26T09:18:01.987Z,77.92
2019-05-26T09:20:30.371Z,77.62
2019-05-26T09:22:58.705Z,77.64
2019-05-26T09:25:26.997Z,77.99
2019-05-26T09:27:55.295Z,77.35
2019-05-26T09:30:24.425Z,76.74
2019-05-26T09:32:52.713Z,77.29
2019-05-26T09:35:20.998Z,76.16
2019-05-26T09:37:49.329Z,76.04
2019-05-26T09:40:17.630Z,76.10
2019-05-26T09:42:45.916Z,75.46
2019-05-26T09:45:14.393Z,74.55
2019-05-26T09:47:42.873Z,73.62
2019-05-26T09:50:11.159Z,71.20
2019-05-26T09:52:39.468Z,72.21
2019-05-26T09:55:07.815Z,70.97
2019-05-26T09:57:36.188Z,71.77
2019-05-26T10:00:07.900Z,71.81
2019-05-26T10:02:36.285Z,70.37
2019-05-26T10:05:06.104Z,69.88
2019-05-26T10:07:34.459Z,71.49
2019-05-26T10:10:03.484Z,69.85
2019-05-26T10:12:31.866Z,67.60
2019-05-26T10:15:00.200Z,68.52
2019-05-26T10:17:28.485Z,68.02
2019-05-26T10:19:56.897Z,67.26
2019-05-26T10:22:25.409Z,66.39
2019-05-26T10:24:54.468Z,67.57
2019-05-26T10:27:22.807Z,67.79
2019-05-26T10:29:51.126Z,67.97
2019-05-26T10:32:19.434Z,67.68
2019-05-26T10:34:47.815Z,67.67
2019-05-26T10:37:16.268Z,67.50
2019-05-26T10:39:45.290Z,67.82
2019-05-26T10:42:13.781Z,67.71
2019-05-26T10:44:42.070Z,68.50
2019-05-26T10:47:10.389Z,69.04
2019-05-26T10:49:38.866Z,66.38
2019-05-26T10:52:07.384Z,66.34
2019-05-26T10:54:35.640Z,67.65
2019-05-26T10:57:04.156Z,67.47
2019-05-26T10:59:32.502Z,66.05
2019-05-26T11:02:00.974Z,65.70
2019-05-26T11:04:29.279Z,65.29
2019-05-26T11:06:57.736Z,66.11
2019-05-26T11:09:26.627Z,67.72
2019-05-26T11:11:54.907Z,67.19
2019-05-26T11:14:23.241Z,66.70
2019-05-26T11:16:51.681Z,64.73
2019-05-26T11:19:20.047Z,65.91
2019-05-26T11:21:48.554Z,66.97
2019-05-26T11:24:16.981Z,68.41
2019-05-26T11:26:45.276Z,68.61
2019-05-26T11:29:13.586Z,70.13
2019-05-26T11:31:41.877Z,71.31
2019-05-26T11:34:10.242Z,71.24
2019-05-26T11:36:38.523Z,70.05
2019-05-26T11:39:07.495Z,69.54
2019-05-26T11:41:35.752Z,68.62
2019-05-26T11:44:17.062Z,69.34
2019-05-26T11:46:37.180Z,69.53
2019-05-26T11:49:05.506Z,69.76
2019-05-26T11:51:33.889Z,70.90
2019-05-26T11:54:02.193Z,69.56
2019-05-26T11:56:30.659Z,68.60
2019-05-26T11:58:59.163Z,68.79
2019-05-26T12:01:27.814Z,69.33
2019-05-26T12:03:56.099Z,69.98
2019-05-26T12:06:24.516Z,70.89
2019-05-26T12:08:52.817Z,71.27
2019-05-26T12:11:21.230Z,71.76
2019-05-26T12:13:49.535Z,72.95
2019-05-26T12:16:17.851Z,72.80
2019-05-26T12:18:46.270Z,72.92
2019-05-26T12:21:14.688Z,72.13
2019-05-26T12:23:42.998Z,73.46
2019-05-26T12:26:11.344Z,72.03
2019-05-26T12:28:39.652Z,72.36
2019-05-26T12:31:08.031Z,72.14
2019-05-26T12:33:36.465Z,70.19
2019-05-26T12:36:05.118Z,70.42
2019-05-26T12:38:35.038Z,72.21
2019-05-26T12:41:03.348Z,70.33
2019-05-26T12:43:31.701Z,70.96
2019-05-26T12:46:00.107Z,71.60
2019-05-26T12:48:28.454Z,72.18
2019-05-26T12:50:56.738Z,72.33
2019-05-26T12:53:25.064Z,71.22
2019-05-26T12:55:53.359Z,71.33
2019-05-26T12:58:21.646Z,70.06
2019-05-26T13:00:54.630Z,70.70
2019-05-26T13:03:19.978Z,69.76
2019-05-26T13:05:48.384Z,69.48
2019-05-26T13:08:16.709Z,70.09
2019-05-26T13:10:45.093Z,71.33
2019-05-26T13:13:13.436Z,70.37
2019-05-26T13:15:42.707Z,70.71
2019-05-26T13:18:11.109Z,71.85
2019-05-26T13:20:39.576Z,70.93
2019-05-26T13:23:07.912Z,70.41
2019-05-26T13:25:36.400Z,69.37
2019-05-26T13:28:04.820Z,69.13
2019-05-26T13:30:34.719Z,68.89
2019-05-26T13:33:03.079Z,69.86
2019-05-26T13:35:31.448Z,71.26
2019-05-26T13:37:59.841Z,71.45
2019-05-26T13:40:29.639Z,71.95
2019-05-26T13:42:58.122Z,71.70
2019-05-26T13:45:26.431Z,73.03
2019-05-26T13:47:54.714Z,73.81
2019-05-26T13:50:23.892Z,73.83
2019-05-26T13:52:52.244Z,73.91
2019-05-26T13:55:20.542Z,73.36
2019-05-26T13:57:49.751Z,73.28
2019-05-26T14:00:18.262Z,72.51
2019-05-26T14:02:46.726Z,72.11
2019-05-26T14:05:15.159Z,72.69
2019-05-26T14:07:44.368Z,73.05
2019-05-26T14:10:14.351Z,72.85
2019-05-26T14:12:42.668Z,72.45
2019-05-26T14:15:12.781Z,72.63
2019-05-26T14:17:41.168Z,72.90
2019-05-26T14:20:10.205Z,73.78
2019-05-26T14:22:38.571Z,73.09
2019-05-26T14:25:07.317Z,72.67
2019-05-26T14:27:35.625Z,72.64
2019-05-26T14:30:05.657Z,74.00
2019-05-26T14:32:34.144Z,72.66
2019-05-26T14:35:02.431Z,73.01
2019-05-26T14:37:30.701Z,73.27
2019-05-26T14:39:59.118Z,70.70
2019-05-26T14:42:27.519Z,71.07
2019-05-26T14:44:55.798Z,72.74
2019-05-26T14:47:24.249Z,71.89
2019-05-26T14:49:52.555Z,71.30
2019-05-26T14:52:20.838Z,72.21
2019-05-26T14:54:49.270Z,72.31
2019-05-26T14:57:17.557Z,72.40
2019-05-26T14:59:45.841Z,72.89
2019-05-26T15:02:14.163Z,73.71
2019-05-26T15:04:42.432Z,75.31
2019-05-26T15:07:10.765Z,75.11
2019-05-26T15:09:39.075Z,75.75
2019-05-26T15:12:07.561Z,76.05
2019-05-26T15:14:36.041Z,75.84
2019-05-26T15:17:04.332Z,75.92
2019-05-26T15:19:32.696Z,75.44
2019-05-26T15:22:01.186Z,75.15
2019-05-26T15:24:29.474Z,75.05
2019-05-26T15:26:57.753Z,75.36
2019-05-26T15:29:26.085Z,75.43
2019-05-26T15:31:54.362Z,75.52
2019-05-26T15:34:23.209Z,75.62
2019-05-26T15:36:51.863Z,73.43
2019-05-26T15:39:20.273Z,74.76
2019-05-26T15:41:48.551Z,75.05
2019-05-26T15:44:16.849Z,75.28
2019-05-26T15:46:45.162Z,75.35
2019-05-26T15:49:13.456Z,75.20
2019-05-26T15:51:41.732Z,75.18
2019-05-26T15:54:10.035Z,71.15
2019-05-26T15:56:38.311Z,73.18
2019-05-26T15:59:06.634Z,76.72
2019-05-26T16:01:34.915Z,77.04
2019-05-26T16:04:03.201Z,76.60
2019-05-26T16:06:31.539Z,76.79
2019-05-26T16:08:59.874Z,76.43
2019-05-26T16:11:28.339Z,79.70
2019-05-26T16:13:56.781Z,85.36
2019-05-26T16:16:40.157Z,89.36
2019-05-26T16:18:55.525Z,88.46
2019-05-26T16:21:28.060Z,87.93
2019-05-26T16:23:53.948Z,86.70
2019-05-26T16:26:22.332Z,84.55
2019-05-26T16:28:50.736Z,82.49
2019-05-26T16:31:19.069Z,81.77
2019-05-26T16:33:47.357Z,80.67
2019-05-26T16:36:15.777Z,78.91
2019-05-26T16:38:44.059Z,78.85
2019-05-26T16:41:12.389Z,81.05
2019-05-26T16:43:40.822Z,82.92
2019-05-26T16:46:09.156Z,82.99
2019-05-26T16:48:37.498Z,82.54
2019-05-26T16:51:05.900Z,82.04
2019-05-26T16:53:34.258Z,81.37
2019-05-26T16:56:02.537Z,81.08
2019-05-26T16:58:30.874Z,81.36
2019-05-26T17:01:01.844Z,81.23
2019-05-26T17:03:30.133Z,80.72
2019-05-26T17:06:07.630Z,80.66
2019-05-26T17:08:28.584Z,80.38
2019-05-26T17:10:57.035Z,80.33
2019-05-26T17:13:25.367Z,80.10
2019-05-26T17:15:53.734Z,79.18
2019-05-26T17:18:22.378Z,79.80
2019-05-26T17:20:50.723Z,79.49
2019-05-26T17:23:19.098Z,79.91
2019-05-26T17:25:47.394Z,79.18
2019-05-26T17:28:15.731Z,79.27
2019-05-26T17:30:44.175Z,78.01
2019-05-26T17:33:12.522Z,78.32
2019-05-26T17:35:40.850Z,78.39
2019-05-26T17:38:09.155Z,78.02
2019-05-26T17:40:37.525Z,78.01
2019-05-26T17:43:05.870Z,78.54
2019-05-26T17:45:34.214Z,77.30
2019-05-26T17:48:02.628Z,77.85
2019-05-26T17:50:30.918Z,77.69
2019-05-26T17:52:59.323Z,78.01
2019-05-26T17:55:27.606Z,77.61
2019-05-26T17:57:56.008Z,77.41
2019-05-26T18:00:24.294Z,77.27
2019-05-26T18:02:52.616Z,77.80
2019-05-26T18:05:20.930Z,77.76
2019-05-26T18:07:49.257Z,77.99
2019-05-26T18:10:17.835Z,78.01
2019-05-26T18:12:46.211Z,77.98
2019-05-26T18:15:14.509Z,78.22
2019-05-26T18:17:47.616Z,78.34
2019-05-26T18:20:13.107Z,78.73
2019-05-26T18:22:41.542Z,78.75
2019-05-26T18:25:10.155Z,79.33
2019-05-26T18:27:38.628Z,79.50
2019-05-26T18:30:07.477Z,79.03
2019-05-26T18:32:35.894Z,79.06
2019-05-26T18:35:06.488Z,79.47
2019-05-26T18:37:35.078Z,79.73
2019-05-26T18:40:03.822Z,80.11
2019-05-26T18:42:32.373Z,80.26
2019-05-26T18:45:01.067Z,80.38
2019-05-26T18:47:30.794Z,80.36
2019-05-26T18:49:59.282Z,80.83
2019-05-26T18:52:27.931Z,80.80
2019-05-26T18:54:56.486Z,80.92
2019-05-26T18:57:25.064Z,81.55
2019-05-26T18:59:53.574Z,81.72
2019-05-26T19:02:22.507Z,81.90
2019-05-26T19:04:50.898Z,82.39
2019-05-26T19:07:19.346Z,82.80
2019-05-26T19:09:47.779Z,84.23
2019-05-26T19:12:16.725Z,84.48
2019-05-26T19:14:45.405Z,84.24
2019-05-26T19:17:15.755Z,84.62
2019-05-26T19:19:44.297Z,85.44
2019-05-26T19:22:13.589Z,86.27
2019-05-26T19:24:42.142Z,87.34
2019-05-26T19:27:10.661Z,88.72
2019-05-26T19:29:40.322Z,92.99
2019-05-26T19:32:09.020Z,95.31
2019-05-26T19:34:37.487Z,99.15
2019-05-26T19:37:05.963Z,100.00
2019-05-26T19:39:34.405Z,100.00
2019-05-26T19:42:02.875Z,100.00
2019-05-26T19:44:31.367Z,100.00
2019-05-26T19:47:00.190Z,100.00
2019-05-26T19:49:28.731Z,100.00
2019-05-26T19:51:58.308Z,100.00
2019-05-26T19:54:26.638Z,100.00
2019-05-26T19:56:55.194Z,100.00
2019-05-26T19:59:23.503Z,100.00
2019-05-26T20:01:51.926Z,100.00
2019-05-26T20:04:20.258Z,100.00
2019-05-26T20:06:48.685Z,100.00
2019-05-26T20:09:17.028Z,100.00
2019-05-26T20:11:45.426Z,100.00
2019-05-26T20:14:13.734Z,100.00
2019-05-26T20:16:42.085Z,100.00
2019-05-26T20:19:10.389Z,100.00
2019-05-26T20:21:38.737Z,100.00
2019-05-26T20:24:07.059Z,100.00
2019-05-26T20:26:35.384Z,100.00
2019-05-26T20:29:04.460Z,100.00
2019-05-26T20:31:32.864Z,100.00
2019-05-26T20:34:01.172Z,100.00
2019-05-26T20:36:29.455Z,100.00
2019-05-26T20:38:57.734Z,100.00
2019-05-26T20:41:26.109Z,100.00
2019-05-26T20:43:54.398Z,100.00
2019-05-26T20:46:22.702Z,100.00
2019-05-26T20:48:52.394Z,100.00
2019-05-26T20:51:20.889Z,100.00
2019-05-26T20:53:49.195Z,100.00
2019-05-26T20:56:17.572Z,100.00
2019-05-26T20:58:45.875Z,100.00
2019-05-26T21:01:14.174Z,100.00
2019-05-26T21:03:42.471Z,100.00
2019-05-26T21:06:10.781Z,100.00
2019-05-26T21:08:39.227Z,100.00
2019-05-26T21:11:07.507Z,100.00
2019-05-26T21:13:35.799Z,100.00
2019-05-26T21:16:04.143Z,100.00
2019-05-26T21:18:32.460Z,100.00
2019-05-26T21:21:00.763Z,100.00
2019-05-26T21:23:29.072Z,100.00
2019-05-26T21:25:57.380Z,100.00
2019-05-26T21:28:25.669Z,100.00
2019-05-26T21:30:54.145Z,100.00
2019-05-26T21:33:22.430Z,100.00
2019-05-26T21:35:50.772Z,100.00
2019-05-26T21:38:19.186Z,100.00
2019-05-26T21:40:47.478Z,100.00
2019-05-26T21:43:15.875Z,100.00
2019-05-26T21:45:44.229Z,100.00
2019-05-26T21:48:12.582Z,100.00
2019-05-26T21:50:40.880Z,100.00
2019-05-26T21:53:09.184Z,100.00
2019-05-26T21:55:37.516Z,100.00
2019-05-26T21:58:05.803Z,100.00
2019-05-26T22:00:44.871Z,100.00
2019-05-26T22:03:13.149Z,100.00
2019-05-26T22:05:41.514Z,100.00
2019-05-26T22:08:09.824Z,100.00
2019-05-26T22:10:38.112Z,100.00
2019-05-26T22:13:06.484Z,100.00
2019-05-26T22:15:34.811Z,100.00
2019-05-26T22:18:03.144Z,100.00
2019-05-26T22:20:31.438Z,100.00
2019-05-26T22:22:59.721Z,100.00
2019-05-26T22:25:28.336Z,100.00
2019-05-26T22:27:56.623Z,100.00
2019-05-26T22:30:24.955Z,100.00
2019-05-26T22:32:53.248Z,100.00
2019-05-26T22:35:21.534Z,100.00
2019-05-26T22:37:49.852Z,100.00
2019-05-26T22:40:18.134Z,100.00
2019-05-26T22:42:46.442Z,100.00
2019-05-26T22:45:15.143Z,100.00
2019-05-26T22:47:43.424Z,100.00
2019-05-26T22:50:11.727Z,100.00
2019-05-26T22:52:40.056Z,100.00
2019-05-26T22:55:08.477Z,100.00
2019-05-26T22:57:36.779Z,100.00
2019-05-26T23:00:07.104Z,100.00
2019-05-26T23:02:35.595Z,100.00
2019-05-26T23:05:04.457Z,100.00
2019-05-26T23:07:32.741Z,100.00
2019-05-26T23:10:02.893Z,100.00
2019-05-26T23:12:31.123Z,100.00
2019-05-26T23:14:59.403Z,100.00
2019-05-26T23:17:27.731Z,100.00
2019-05-26T23:19:58.946Z,100.00
2019-05-26T23:22:27.236Z,100.00
2019-05-26T23:24:55.583Z,100.00
2019-05-26T23:27:23.865Z,100.00
2019-05-26T23:29:52.158Z,100.00
2019-05-26T23:32:20.617Z,100.00
2019-05-26T23:34:48.894Z,100.00
2019-05-26T23:37:17.188Z,100.00
2019-05-26T23:39:45.498Z,100.00
2019-05-26T23:42:14.996Z,100.00
2019-05-26T23:44:43.308Z,100.00
2019-05-26T23:47:11.779Z,100.00
2019-05-26T23:49:40.099Z,100.00
2019-05-26T23:52:08.384Z,100.00
2019-05-26T23:54:36.801Z,100.00
2019-05-26T23:57:05.122Z,100.00
2019-05-26T23:59:33.408Z,100.00
